sensor_id;sensor_type;location;lat;lon;timestamp;P1;durP1;ratioP1;P2;durP2;ratioP2
22677;SDS011;26259;50.214;18.620;2023-04-06T00:00:50;87.33;;;38.73;;
22677;SDS011;26259;50.214;18.620;2023-04-06T00:03:16;88.23;;;41.60;;
22677;SDS011;26259;50.214;18.620;2023-04-06T00:05:42;97.97;;;40.10;;
22677;SDS011;26259;50.214;18.620;2023-04-06T00:08:08;97.30;;;40.90;;
22677;SDS011;26259;50.214;18.620;2023-04-06T00:10:33;101.33;;;45.17;;
22677;SDS011;26259;50.214;18.620;2023-04-06T00:12:59;99.57;;;45.67;;
22677;SDS011;26259;50.214;18.620;2023-04-06T00:15:25;91.07;;;43.00;;
22677;SDS011;26259;50.214;18.620;2023-04-06T00:17:51;111.17;;;50.20;;
22677;SDS011;26259;50.214;18.620;2023-04-06T00:20:17;109.43;;;49.33;;
22677;SDS011;26259;50.214;18.620;2023-04-06T00:22:43;93.90;;;42.40;;
22677;SDS011;26259;50.214;18.620;2023-04-06T00:25:10;90.53;;;41.77;;
22677;SDS011;26259;50.214;18.620;2023-04-06T00:27:36;102.27;;;46.23;;
22677;SDS011;26259;50.214;18.620;2023-04-06T00:30:06;109.63;;;51.17;;
22677;SDS011;26259;50.214;18.620;2023-04-06T00:32:32;99.83;;;46.83;;
22677;SDS011;26259;50.214;18.620;2023-04-06T00:34:59;118.57;;;50.20;;
22677;SDS011;26259;50.214;18.620;2023-04-06T00:37:26;103.97;;;47.70;;
22677;SDS011;26259;50.214;18.620;2023-04-06T00:39:52;101.20;;;46.43;;
22677;SDS011;26259;50.214;18.620;2023-04-06T00:42:17;111.03;;;51.77;;
22677;SDS011;26259;50.214;18.620;2023-04-06T00:44:50;109.63;;;49.97;;
22677;SDS011;26259;50.214;18.620;2023-04-06T00:47:17;125.35;;;56.20;;
22677;SDS011;26259;50.214;18.620;2023-04-06T00:49:42;130.93;;;56.83;;
22677;SDS011;26259;50.214;18.620;2023-04-06T00:52:08;119.67;;;56.90;;
22677;SDS011;26259;50.214;18.620;2023-04-06T00:54:34;128.40;;;58.13;;
22677;SDS011;26259;50.214;18.620;2023-04-06T00:56:59;128.40;;;58.03;;
22677;SDS011;26259;50.214;18.620;2023-04-06T00:59:25;127.33;;;57.47;;
22677;SDS011;26259;50.214;18.620;2023-04-06T01:01:52;122.47;;;56.53;;
22677;SDS011;26259;50.214;18.620;2023-04-06T01:04:18;123.27;;;56.63;;
22677;SDS011;26259;50.214;18.620;2023-04-06T01:06:43;127.73;;;57.87;;
22677;SDS011;26259;50.214;18.620;2023-04-06T01:09:10;120.13;;;56.33;;
22677;SDS011;26259;50.214;18.620;2023-04-06T01:11:35;121.63;;;57.37;;
22677;SDS011;26259;50.214;18.620;2023-04-06T01:14:01;118.10;;;54.53;;
22677;SDS011;26259;50.214;18.620;2023-04-06T01:16:28;123.30;;;55.80;;
22677;SDS011;26259;50.214;18.620;2023-04-06T01:18:53;121.47;;;58.57;;
22677;SDS011;26259;50.214;18.620;2023-04-06T01:21:19;131.23;;;60.60;;
22677;SDS011;26259;50.214;18.620;2023-04-06T01:23:45;128.03;;;60.10;;
22677;SDS011;26259;50.214;18.620;2023-04-06T01:26:11;129.57;;;62.53;;
22677;SDS011;26259;50.214;18.620;2023-04-06T01:28:37;130.23;;;62.63;;
22677;SDS011;26259;50.214;18.620;2023-04-06T01:31:04;125.17;;;60.90;;
22677;SDS011;26259;50.214;18.620;2023-04-06T01:33:30;135.47;;;63.43;;
22677;SDS011;26259;50.214;18.620;2023-04-06T01:35:56;121.77;;;60.33;;
22677;SDS011;26259;50.214;18.620;2023-04-06T01:38:21;137.00;;;62.50;;
22677;SDS011;26259;50.214;18.620;2023-04-06T01:40:47;135.67;;;63.80;;
22677;SDS011;26259;50.214;18.620;2023-04-06T01:43:12;131.50;;;63.13;;
22677;SDS011;26259;50.214;18.620;2023-04-06T01:45:38;146.50;;;66.37;;
22677;SDS011;26259;50.214;18.620;2023-04-06T01:48:04;158.77;;;71.60;;
22677;SDS011;26259;50.214;18.620;2023-04-06T01:50:30;154.63;;;70.40;;
22677;SDS011;26259;50.214;18.620;2023-04-06T01:52:56;153.53;;;72.90;;
22677;SDS011;26259;50.214;18.620;2023-04-06T01:55:21;163.43;;;74.67;;
22677;SDS011;26259;50.214;18.620;2023-04-06T01:57:47;154.20;;;72.73;;
22677;SDS011;26259;50.214;18.620;2023-04-06T02:00:13;163.87;;;77.03;;
22677;SDS011;26259;50.214;18.620;2023-04-06T02:02:39;198.17;;;90.90;;
22677;SDS011;26259;50.214;18.620;2023-04-06T02:05:04;182.50;;;83.47;;
22677;SDS011;26259;50.214;18.620;2023-04-06T02:07:30;211.77;;;95.70;;
22677;SDS011;26259;50.214;18.620;2023-04-06T02:09:56;200.53;;;91.33;;
22677;SDS011;26259;50.214;18.620;2023-04-06T02:12:22;191.53;;;88.73;;
22677;SDS011;26259;50.214;18.620;2023-04-06T02:14:48;195.33;;;89.53;;
22677;SDS011;26259;50.214;18.620;2023-04-06T02:17:14;201.13;;;91.07;;
22677;SDS011;26259;50.214;18.620;2023-04-06T02:19:39;206.47;;;88.73;;
22677;SDS011;26259;50.214;18.620;2023-04-06T02:22:05;198.33;;;87.93;;
22677;SDS011;26259;50.214;18.620;2023-04-06T02:24:31;181.13;;;85.43;;
22677;SDS011;26259;50.214;18.620;2023-04-06T02:26:57;171.57;;;76.13;;
22677;SDS011;26259;50.214;18.620;2023-04-06T02:29:23;177.53;;;82.03;;
22677;SDS011;26259;50.214;18.620;2023-04-06T02:31:48;170.30;;;79.10;;
22677;SDS011;26259;50.214;18.620;2023-04-06T02:34:14;156.30;;;73.57;;
22677;SDS011;26259;50.214;18.620;2023-04-06T02:36:45;142.47;;;68.80;;
22677;SDS011;26259;50.214;18.620;2023-04-06T02:39:11;136.40;;;61.77;;
22677;SDS011;26259;50.214;18.620;2023-04-06T02:41:37;126.50;;;62.50;;
22677;SDS011;26259;50.214;18.620;2023-04-06T02:44:03;124.20;;;63.73;;
22677;SDS011;26259;50.214;18.620;2023-04-06T02:46:30;114.97;;;58.43;;
22677;SDS011;26259;50.214;18.620;2023-04-06T02:48:56;121.73;;;60.80;;
22677;SDS011;26259;50.214;18.620;2023-04-06T02:51:25;114.77;;;58.23;;
22677;SDS011;26259;50.214;18.620;2023-04-06T02:53:51;119.80;;;59.50;;
22677;SDS011;26259;50.214;18.620;2023-04-06T02:56:16;113.73;;;57.37;;
22677;SDS011;26259;50.214;18.620;2023-04-06T02:58:42;121.10;;;59.10;;
22677;SDS011;26259;50.214;18.620;2023-04-06T03:01:07;119.27;;;58.23;;
22677;SDS011;26259;50.214;18.620;2023-04-06T03:03:33;117.87;;;58.23;;
22677;SDS011;26259;50.214;18.620;2023-04-06T03:05:58;125.07;;;60.90;;
22677;SDS011;26259;50.214;18.620;2023-04-06T03:08:25;118.37;;;57.77;;
22677;SDS011;26259;50.214;18.620;2023-04-06T03:10:50;119.20;;;57.50;;
22677;SDS011;26259;50.214;18.620;2023-04-06T03:13:16;120.43;;;59.83;;
22677;SDS011;26259;50.214;18.620;2023-04-06T03:15:41;129.13;;;61.10;;
22677;SDS011;26259;50.214;18.620;2023-04-06T03:18:07;124.97;;;61.83;;
22677;SDS011;26259;50.214;18.620;2023-04-06T03:20:32;123.57;;;58.13;;
22677;SDS011;26259;50.214;18.620;2023-04-06T03:22:58;116.73;;;58.57;;
22677;SDS011;26259;50.214;18.620;2023-04-06T03:25:24;127.80;;;62.03;;
22677;SDS011;26259;50.214;18.620;2023-04-06T03:27:49;135.40;;;62.00;;
22677;SDS011;26259;50.214;18.620;2023-04-06T03:30:15;117.30;;;58.30;;
22677;SDS011;26259;50.214;18.620;2023-04-06T03:32:43;128.87;;;59.77;;
22677;SDS011;26259;50.214;18.620;2023-04-06T03:35:09;129.77;;;60.03;;
22677;SDS011;26259;50.214;18.620;2023-04-06T03:37:35;120.13;;;59.00;;
22677;SDS011;26259;50.214;18.620;2023-04-06T03:40:01;123.07;;;58.43;;
22677;SDS011;26259;50.214;18.620;2023-04-06T03:42:27;114.70;;;56.33;;
22677;SDS011;26259;50.214;18.620;2023-04-06T03:44:53;112.03;;;55.27;;
22677;SDS011;26259;50.214;18.620;2023-04-06T03:47:18;120.80;;;57.83;;
22677;SDS011;26259;50.214;18.620;2023-04-06T03:49:44;109.33;;;53.97;;
22677;SDS011;26259;50.214;18.620;2023-04-06T03:52:10;128.10;;;57.43;;
22677;SDS011;26259;50.214;18.620;2023-04-06T03:54:36;120.07;;;56.43;;
22677;SDS011;26259;50.214;18.620;2023-04-06T03:57:01;105.70;;;52.90;;
22677;SDS011;26259;50.214;18.620;2023-04-06T03:59:27;111.10;;;54.53;;
22677;SDS011;26259;50.214;18.620;2023-04-06T04:01:52;107.37;;;55.90;;
22677;SDS011;26259;50.214;18.620;2023-04-06T04:04:18;111.83;;;55.40;;
22677;SDS011;26259;50.214;18.620;2023-04-06T04:06:44;123.27;;;58.13;;
22677;SDS011;26259;50.214;18.620;2023-04-06T04:09:09;114.07;;;56.53;;
22677;SDS011;26259;50.214;18.620;2023-04-06T04:11:35;131.23;;;59.80;;
22677;SDS011;26259;50.214;18.620;2023-04-06T04:14:01;125.30;;;60.90;;
22677;SDS011;26259;50.214;18.620;2023-04-06T04:16:26;138.43;;;64.70;;
22677;SDS011;26259;50.214;18.620;2023-04-06T04:18:52;139.83;;;63.97;;
22677;SDS011;26259;50.214;18.620;2023-04-06T04:21:17;132.53;;;62.20;;
22677;SDS011;26259;50.214;18.620;2023-04-06T04:23:43;126.73;;;63.47;;
22677;SDS011;26259;50.214;18.620;2023-04-06T04:26:08;132.87;;;61.93;;
22677;SDS011;26259;50.214;18.620;2023-04-06T04:28:34;146.00;;;70.83;;
22677;SDS011;26259;50.214;18.620;2023-04-06T04:31:00;150.63;;;67.67;;
22677;SDS011;26259;50.214;18.620;2023-04-06T04:33:25;179.40;;;76.23;;
22677;SDS011;26259;50.214;18.620;2023-04-06T04:35:51;201.80;;;82.23;;
22677;SDS011;26259;50.214;18.620;2023-04-06T04:38:16;173.50;;;76.10;;
22677;SDS011;26259;50.214;18.620;2023-04-06T04:40:42;177.50;;;78.30;;
22677;SDS011;26259;50.214;18.620;2023-04-06T04:43:08;175.93;;;77.33;;
22677;SDS011;26259;50.214;18.620;2023-04-06T04:45:33;179.63;;;77.97;;
22677;SDS011;26259;50.214;18.620;2023-04-06T04:47:59;169.67;;;74.63;;
22677;SDS011;26259;50.214;18.620;2023-04-06T04:50:24;169.07;;;77.57;;
22677;SDS011;26259;50.214;18.620;2023-04-06T04:52:50;171.50;;;76.50;;
22677;SDS011;26259;50.214;18.620;2023-04-06T04:55:16;178.63;;;78.97;;
22677;SDS011;26259;50.214;18.620;2023-04-06T04:57:42;178.83;;;77.23;;
22677;SDS011;26259;50.214;18.620;2023-04-06T05:00:08;171.80;;;79.10;;
22677;SDS011;26259;50.214;18.620;2023-04-06T05:02:34;184.57;;;81.83;;
22677;SDS011;26259;50.214;18.620;2023-04-06T05:04:59;187.13;;;83.57;;
22677;SDS011;26259;50.214;18.620;2023-04-06T05:07:25;187.93;;;86.07;;
22677;SDS011;26259;50.214;18.620;2023-04-06T05:09:51;185.97;;;86.03;;
22677;SDS011;26259;50.214;18.620;2023-04-06T05:12:16;183.27;;;84.13;;
22677;SDS011;26259;50.214;18.620;2023-04-06T05:14:42;193.33;;;86.27;;
22677;SDS011;26259;50.214;18.620;2023-04-06T05:17:08;188.30;;;86.57;;
22677;SDS011;26259;50.214;18.620;2023-04-06T05:19:34;174.00;;;85.93;;
22677;SDS011;26259;50.214;18.620;2023-04-06T05:21:59;177.73;;;83.87;;
22677;SDS011;26259;50.214;18.620;2023-04-06T05:24:25;159.90;;;80.20;;
22677;SDS011;26259;50.214;18.620;2023-04-06T05:26:50;176.13;;;85.50;;
22677;SDS011;26259;50.214;18.620;2023-04-06T05:29:16;176.83;;;86.87;;
22677;SDS011;26259;50.214;18.620;2023-04-06T05:31:43;196.77;;;94.13;;
22677;SDS011;26259;50.214;18.620;2023-04-06T05:34:09;215.07;;;102.60;;
22677;SDS011;26259;50.214;18.620;2023-04-06T05:36:35;230.60;;;105.43;;
22677;SDS011;26259;50.214;18.620;2023-04-06T05:39:01;234.97;;;103.77;;
22677;SDS011;26259;50.214;18.620;2023-04-06T05:41:26;238.13;;;102.77;;
22677;SDS011;26259;50.214;18.620;2023-04-06T05:43:52;286.23;;;112.33;;
22677;SDS011;26259;50.214;18.620;2023-04-06T05:46:18;258.50;;;106.73;;
22677;SDS011;26259;50.214;18.620;2023-04-06T05:48:43;269.90;;;110.07;;
22677;SDS011;26259;50.214;18.620;2023-04-06T05:51:10;276.93;;;108.10;;
22677;SDS011;26259;50.214;18.620;2023-04-06T05:53:35;268.27;;;105.97;;
22677;SDS011;26259;50.214;18.620;2023-04-06T05:56:01;254.53;;;102.43;;
22677;SDS011;26259;50.214;18.620;2023-04-06T05:58:28;222.13;;;94.87;;
22677;SDS011;26259;50.214;18.620;2023-04-06T06:00:57;227.27;;;101.53;;
22677;SDS011;26259;50.214;18.620;2023-04-06T06:03:23;233.80;;;110.97;;
22677;SDS011;26259;50.214;18.620;2023-04-06T06:05:48;218.20;;;106.43;;
22677;SDS011;26259;50.214;18.620;2023-04-06T06:08:14;208.53;;;99.03;;
22677;SDS011;26259;50.214;18.620;2023-04-06T06:10:40;202.07;;;96.93;;
22677;SDS011;26259;50.214;18.620;2023-04-06T06:13:05;200.03;;;99.17;;
22677;SDS011;26259;50.214;18.620;2023-04-06T06:15:31;189.07;;;92.90;;
22677;SDS011;26259;50.214;18.620;2023-04-06T06:17:57;170.33;;;87.73;;
22677;SDS011;26259;50.214;18.620;2023-04-06T06:20:22;165.03;;;84.13;;
22677;SDS011;26259;50.214;18.620;2023-04-06T06:22:48;173.10;;;84.70;;
22677;SDS011;26259;50.214;18.620;2023-04-06T06:25:13;158.53;;;77.67;;
22677;SDS011;26259;50.214;18.620;2023-04-06T06:27:39;148.70;;;75.07;;
22677;SDS011;26259;50.214;18.620;2023-04-06T06:30:05;141.63;;;72.37;;
22677;SDS011;26259;50.214;18.620;2023-04-06T06:32:31;162.07;;;81.37;;
22677;SDS011;26259;50.214;18.620;2023-04-06T06:34:57;137.97;;;69.57;;
22677;SDS011;26259;50.214;18.620;2023-04-06T06:37:23;127.40;;;63.67;;
22677;SDS011;26259;50.214;18.620;2023-04-06T06:39:48;122.20;;;60.93;;
22677;SDS011;26259;50.214;18.620;2023-04-06T06:42:14;120.07;;;61.07;;
22677;SDS011;26259;50.214;18.620;2023-04-06T06:44:39;113.43;;;63.27;;
22677;SDS011;26259;50.214;18.620;2023-04-06T06:47:05;120.20;;;62.83;;
22677;SDS011;26259;50.214;18.620;2023-04-06T06:49:30;117.50;;;61.63;;
22677;SDS011;26259;50.214;18.620;2023-04-06T06:51:56;113.87;;;56.60;;
22677;SDS011;26259;50.214;18.620;2023-04-06T06:54:22;104.00;;;55.77;;
22677;SDS011;26259;50.214;18.620;2023-04-06T06:56:47;106.77;;;53.70;;
22677;SDS011;26259;50.214;18.620;2023-04-06T06:59:13;74.00;;;39.77;;
22677;SDS011;26259;50.214;18.620;2023-04-06T07:01:38;58.73;;;29.83;;
22677;SDS011;26259;50.214;18.620;2023-04-06T07:04:04;19.77;;;10.17;;
22677;SDS011;26259;50.214;18.620;2023-04-06T07:06:29;19.80;;;11.53;;
22677;SDS011;26259;50.214;18.620;2023-04-06T07:08:55;15.73;;;8.17;;
22677;SDS011;26259;50.214;18.620;2023-04-06T07:11:20;16.37;;;7.73;;
22677;SDS011;26259;50.214;18.620;2023-04-06T07:13:46;18.77;;;9.57;;
22677;SDS011;26259;50.214;18.620;2023-04-06T07:16:12;19.23;;;9.63;;
22677;SDS011;26259;50.214;18.620;2023-04-06T07:18:37;16.77;;;10.93;;
22677;SDS011;26259;50.214;18.620;2023-04-06T07:21:03;21.17;;;11.17;;
22677;SDS011;26259;50.214;18.620;2023-04-06T07:23:29;20.87;;;11.03;;
22677;SDS011;26259;50.214;18.620;2023-04-06T07:25:55;22.37;;;11.10;;
22677;SDS011;26259;50.214;18.620;2023-04-06T07:28:20;19.13;;;11.23;;
22677;SDS011;26259;50.214;18.620;2023-04-06T07:30:47;19.20;;;10.67;;
22677;SDS011;26259;50.214;18.620;2023-04-06T07:33:12;19.40;;;10.17;;
22677;SDS011;26259;50.214;18.620;2023-04-06T07:35:38;17.70;;;10.30;;
22677;SDS011;26259;50.214;18.620;2023-04-06T07:38:04;21.10;;;11.27;;
22677;SDS011;26259;50.214;18.620;2023-04-06T07:40:30;23.13;;;11.03;;
22677;SDS011;26259;50.214;18.620;2023-04-06T07:42:56;19.90;;;10.17;;
22677;SDS011;26259;50.214;18.620;2023-04-06T07:45:22;17.50;;;10.47;;
22677;SDS011;26259;50.214;18.620;2023-04-06T07:47:48;21.63;;;10.50;;
22677;SDS011;26259;50.214;18.620;2023-04-06T07:50:14;16.30;;;10.00;;
22677;SDS011;26259;50.214;18.620;2023-04-06T07:52:40;16.07;;;9.63;;
22677;SDS011;26259;50.214;18.620;2023-04-06T07:55:06;17.90;;;10.00;;
22677;SDS011;26259;50.214;18.620;2023-04-06T07:57:32;20.57;;;10.20;;
22677;SDS011;26259;50.214;18.620;2023-04-06T07:59:57;16.83;;;10.73;;
22677;SDS011;26259;50.214;18.620;2023-04-06T08:02:23;18.53;;;10.73;;
22677;SDS011;26259;50.214;18.620;2023-04-06T08:04:49;17.10;;;9.97;;
22677;SDS011;26259;50.214;18.620;2023-04-06T08:07:14;20.17;;;11.17;;
22677;SDS011;26259;50.214;18.620;2023-04-06T08:09:40;18.23;;;11.27;;
22677;SDS011;26259;50.214;18.620;2023-04-06T08:12:05;21.10;;;11.53;;
22677;SDS011;26259;50.214;18.620;2023-04-06T08:14:31;17.53;;;10.27;;
22677;SDS011;26259;50.214;18.620;2023-04-06T08:16:57;17.57;;;10.23;;
22677;SDS011;26259;50.214;18.620;2023-04-06T08:19:22;18.97;;;10.10;;
22677;SDS011;26259;50.214;18.620;2023-04-06T08:21:48;20.57;;;10.17;;
22677;SDS011;26259;50.214;18.620;2023-04-06T08:24:13;17.30;;;9.90;;
22677;SDS011;26259;50.214;18.620;2023-04-06T08:26:40;35.33;;;16.20;;
22677;SDS011;26259;50.214;18.620;2023-04-06T08:29:05;37.67;;;17.47;;
22677;SDS011;26259;50.214;18.620;2023-04-06T08:31:34;14.57;;;9.17;;
22677;SDS011;26259;50.214;18.620;2023-04-06T08:34:00;14.73;;;8.80;;
22677;SDS011;26259;50.214;18.620;2023-04-06T08:36:28;13.37;;;8.70;;
22677;SDS011;26259;50.214;18.620;2023-04-06T08:38:54;15.97;;;9.67;;
22677;SDS011;26259;50.214;18.620;2023-04-06T08:41:19;16.03;;;9.93;;
22677;SDS011;26259;50.214;18.620;2023-04-06T08:43:49;15.93;;;10.30;;
22677;SDS011;26259;50.214;18.620;2023-04-06T08:46:18;57.53;;;24.80;;
22677;SDS011;26259;50.214;18.620;2023-04-06T08:48:43;26.63;;;11.40;;
22677;SDS011;26259;50.214;18.620;2023-04-06T08:51:13;16.03;;;10.13;;
22677;SDS011;26259;50.214;18.620;2023-04-06T08:53:40;27.17;;;12.07;;
22677;SDS011;26259;50.214;18.620;2023-04-06T08:56:06;21.43;;;10.43;;
22677;SDS011;26259;50.214;18.620;2023-04-06T08:58:35;16.40;;;9.40;;
22677;SDS011;26259;50.214;18.620;2023-04-06T09:01:03;22.50;;;12.33;;
22677;SDS011;26259;50.214;18.620;2023-04-06T09:03:38;18.90;;;10.37;;
22677;SDS011;26259;50.214;18.620;2023-04-06T09:06:05;19.43;;;10.23;;
22677;SDS011;26259;50.214;18.620;2023-04-06T09:08:35;22.63;;;11.23;;
22677;SDS011;26259;50.214;18.620;2023-04-06T09:11:01;17.50;;;9.67;;
22677;SDS011;26259;50.214;18.620;2023-04-06T09:13:27;20.00;;;12.27;;
22677;SDS011;26259;50.214;18.620;2023-04-06T09:16:02;20.30;;;10.63;;
22677;SDS011;26259;50.214;18.620;2023-04-06T09:18:29;18.97;;;10.93;;
22677;SDS011;26259;50.214;18.620;2023-04-06T09:20:56;17.80;;;10.23;;
22677;SDS011;26259;50.214;18.620;2023-04-06T09:23:30;15.27;;;9.57;;
22677;SDS011;26259;50.214;18.620;2023-04-06T09:26:08;16.10;;;9.47;;
22677;SDS011;26259;50.214;18.620;2023-04-06T09:28:45;16.80;;;9.23;;
22677;SDS011;26259;50.214;18.620;2023-04-06T09:31:11;17.00;;;9.57;;
22677;SDS011;26259;50.214;18.620;2023-04-06T09:33:38;15.70;;;9.67;;
22677;SDS011;26259;50.214;18.620;2023-04-06T09:36:06;15.67;;;9.30;;
22677;SDS011;26259;50.214;18.620;2023-04-06T09:38:34;16.13;;;9.20;;
22677;SDS011;26259;50.214;18.620;2023-04-06T09:41:01;15.07;;;8.70;;
22677;SDS011;26259;50.214;18.620;2023-04-06T09:43:27;10.50;;;7.17;;
22677;SDS011;26259;50.214;18.620;2023-04-06T09:45:55;14.40;;;8.47;;
22677;SDS011;26259;50.214;18.620;2023-04-06T09:48:21;17.33;;;8.97;;
22677;SDS011;26259;50.214;18.620;2023-04-06T09:50:49;15.43;;;9.33;;
22677;SDS011;26259;50.214;18.620;2023-04-06T09:53:18;13.47;;;8.30;;
22677;SDS011;26259;50.214;18.620;2023-04-06T09:55:45;15.00;;;9.17;;
22677;SDS011;26259;50.214;18.620;2023-04-06T09:58:17;13.00;;;8.53;;
22677;SDS011;26259;50.214;18.620;2023-04-06T10:00:54;17.20;;;8.50;;
22677;SDS011;26259;50.214;18.620;2023-04-06T10:03:32;19.97;;;9.93;;
22677;SDS011;26259;50.214;18.620;2023-04-06T10:06:13;16.33;;;9.83;;
22677;SDS011;26259;50.214;18.620;2023-04-06T10:08:40;15.27;;;10.20;;
22677;SDS011;26259;50.214;18.620;2023-04-06T10:11:11;14.70;;;9.03;;
22677;SDS011;26259;50.214;18.620;2023-04-06T10:13:37;16.70;;;10.07;;
22677;SDS011;26259;50.214;18.620;2023-04-06T10:16:02;15.77;;;9.50;;
22677;SDS011;26259;50.214;18.620;2023-04-06T10:18:29;18.37;;;10.27;;
22677;SDS011;26259;50.214;18.620;2023-04-06T10:23:55;27.07;;;12.77;;
22677;SDS011;26259;50.214;18.620;2023-04-06T10:26:24;22.37;;;11.80;;
22677;SDS011;26259;50.214;18.620;2023-04-06T10:28:50;17.80;;;9.80;;
22677;SDS011;26259;50.214;18.620;2023-04-06T10:31:23;15.87;;;9.33;;
22677;SDS011;26259;50.214;18.620;2023-04-06T10:33:59;12.73;;;8.93;;
22677;SDS011;26259;50.214;18.620;2023-04-06T10:36:26;18.00;;;10.73;;
22677;SDS011;26259;50.214;18.620;2023-04-06T10:39:00;17.37;;;9.53;;
22677;SDS011;26259;50.214;18.620;2023-04-06T10:41:33;13.73;;;9.27;;
22677;SDS011;26259;50.214;18.620;2023-04-06T10:44:06;13.47;;;9.30;;
22677;SDS011;26259;50.214;18.620;2023-04-06T10:46:32;12.60;;;9.23;;
22677;SDS011;26259;50.214;18.620;2023-04-06T10:49:11;15.23;;;9.30;;
22677;SDS011;26259;50.214;18.620;2023-04-06T10:51:37;16.67;;;10.63;;
22677;SDS011;26259;50.214;18.620;2023-04-06T10:54:03;18.67;;;11.17;;
22677;SDS011;26259;50.214;18.620;2023-04-06T10:56:31;15.13;;;10.30;;
22677;SDS011;26259;50.214;18.620;2023-04-06T10:59:01;21.10;;;11.67;;
22677;SDS011;26259;50.214;18.620;2023-04-06T11:01:27;23.73;;;12.77;;
22677;SDS011;26259;50.214;18.620;2023-04-06T11:03:54;25.27;;;13.57;;
22677;SDS011;26259;50.214;18.620;2023-04-06T11:06:30;22.60;;;12.80;;
22677;SDS011;26259;50.214;18.620;2023-04-06T11:08:57;15.47;;;10.70;;
22677;SDS011;26259;50.214;18.620;2023-04-06T11:11:24;20.50;;;10.97;;
22677;SDS011;26259;50.214;18.620;2023-04-06T11:13:52;16.47;;;10.03;;
22677;SDS011;26259;50.214;18.620;2023-04-06T11:16:19;14.20;;;9.73;;
22677;SDS011;26259;50.214;18.620;2023-04-06T11:18:49;17.40;;;11.03;;
22677;SDS011;26259;50.214;18.620;2023-04-06T11:21:32;16.57;;;10.07;;
22677;SDS011;26259;50.214;18.620;2023-04-06T11:26:41;12.00;;;9.37;;
22677;SDS011;26259;50.214;18.620;2023-04-06T11:29:14;13.20;;;9.63;;
22677;SDS011;26259;50.214;18.620;2023-04-06T11:31:42;12.90;;;9.00;;
22677;SDS011;26259;50.214;18.620;2023-04-06T11:34:12;12.37;;;8.97;;
22677;SDS011;26259;50.214;18.620;2023-04-06T11:36:41;14.03;;;9.20;;
22677;SDS011;26259;50.214;18.620;2023-04-06T11:39:07;11.30;;;8.27;;
22677;SDS011;26259;50.214;18.620;2023-04-06T11:41:33;12.13;;;8.77;;
22677;SDS011;26259;50.214;18.620;2023-04-06T11:44:00;16.97;;;9.50;;
22677;SDS011;26259;50.214;18.620;2023-04-06T11:46:27;13.40;;;9.27;;
22677;SDS011;26259;50.214;18.620;2023-04-06T11:48:53;17.57;;;9.17;;
22677;SDS011;26259;50.214;18.620;2023-04-06T11:51:24;13.33;;;8.40;;
22677;SDS011;26259;50.214;18.620;2023-04-06T11:53:51;9.83;;;6.97;;
22677;SDS011;26259;50.214;18.620;2023-04-06T11:56:29;10.50;;;6.87;;
22677;SDS011;26259;50.214;18.620;2023-04-06T11:58:55;11.90;;;7.45;;
22677;SDS011;26259;50.214;18.620;2023-04-06T12:01:22;10.97;;;7.07;;
22677;SDS011;26259;50.214;18.620;2023-04-06T12:03:49;11.83;;;7.60;;
22677;SDS011;26259;50.214;18.620;2023-04-06T12:06:16;12.80;;;8.20;;
22677;SDS011;26259;50.214;18.620;2023-04-06T12:08:41;13.43;;;8.80;;
22677;SDS011;26259;50.214;18.620;2023-04-06T12:11:07;10.73;;;7.67;;
22677;SDS011;26259;50.214;18.620;2023-04-06T12:13:33;10.60;;;7.27;;
22677;SDS011;26259;50.214;18.620;2023-04-06T12:15:58;12.53;;;7.10;;
22677;SDS011;26259;50.214;18.620;2023-04-06T12:18:24;10.73;;;6.30;;
22677;SDS011;26259;50.214;18.620;2023-04-06T12:20:50;10.80;;;6.87;;
22677;SDS011;26259;50.214;18.620;2023-04-06T12:23:17;18.00;;;9.30;;
22677;SDS011;26259;50.214;18.620;2023-04-06T12:25:43;9.37;;;6.33;;
22677;SDS011;26259;50.214;18.620;2023-04-06T12:28:09;10.17;;;6.70;;
22677;SDS011;26259;50.214;18.620;2023-04-06T12:30:35;14.33;;;8.63;;
22677;SDS011;26259;50.214;18.620;2023-04-06T12:33:00;16.80;;;9.90;;
22677;SDS011;26259;50.214;18.620;2023-04-06T12:35:26;10.93;;;6.73;;
22677;SDS011;26259;50.214;18.620;2023-04-06T12:37:52;11.17;;;7.83;;
22677;SDS011;26259;50.214;18.620;2023-04-06T12:40:18;10.67;;;7.17;;
22677;SDS011;26259;50.214;18.620;2023-04-06T12:42:43;9.47;;;6.23;;
22677;SDS011;26259;50.214;18.620;2023-04-06T12:45:10;10.07;;;6.47;;
22677;SDS011;26259;50.214;18.620;2023-04-06T12:47:36;8.40;;;6.03;;
22677;SDS011;26259;50.214;18.620;2023-04-06T12:50:03;7.77;;;6.10;;
22677;SDS011;26259;50.214;18.620;2023-04-06T12:52:31;10.33;;;6.23;;
22677;SDS011;26259;50.214;18.620;2023-04-06T12:55:00;9.03;;;6.40;;
22677;SDS011;26259;50.214;18.620;2023-04-06T12:57:26;7.57;;;5.73;;
22677;SDS011;26259;50.214;18.620;2023-04-06T12:59:52;9.33;;;6.70;;
22677;SDS011;26259;50.214;18.620;2023-04-06T13:02:17;11.20;;;6.23;;
22677;SDS011;26259;50.214;18.620;2023-04-06T13:04:45;9.47;;;6.83;;
22677;SDS011;26259;50.214;18.620;2023-04-06T13:07:10;12.97;;;7.20;;
22677;SDS011;26259;50.214;18.620;2023-04-06T13:09:36;17.67;;;6.40;;
22677;SDS011;26259;50.214;18.620;2023-04-06T13:12:02;10.57;;;7.80;;
22677;SDS011;26259;50.214;18.620;2023-04-06T13:14:28;11.43;;;7.23;;
22677;SDS011;26259;50.214;18.620;2023-04-06T13:16:53;11.10;;;7.10;;
22677;SDS011;26259;50.214;18.620;2023-04-06T13:19:19;13.40;;;7.30;;
22677;SDS011;26259;50.214;18.620;2023-04-06T13:21:45;10.90;;;7.10;;
22677;SDS011;26259;50.214;18.620;2023-04-06T13:24:10;10.87;;;7.57;;
22677;SDS011;26259;50.214;18.620;2023-04-06T13:26:36;14.27;;;7.50;;
22677;SDS011;26259;50.214;18.620;2023-04-06T13:29:02;13.37;;;7.93;;
22677;SDS011;26259;50.214;18.620;2023-04-06T13:31:28;13.87;;;8.67;;
22677;SDS011;26259;50.214;18.620;2023-04-06T13:33:54;13.93;;;8.93;;
22677;SDS011;26259;50.214;18.620;2023-04-06T13:36:19;11.23;;;8.23;;
22677;SDS011;26259;50.214;18.620;2023-04-06T13:38:45;11.70;;;9.30;;
22677;SDS011;26259;50.214;18.620;2023-04-06T13:41:19;11.90;;;8.27;;
22677;SDS011;26259;50.214;18.620;2023-04-06T13:43:48;15.67;;;8.57;;
22677;SDS011;26259;50.214;18.620;2023-04-06T13:46:14;12.37;;;8.77;;
22677;SDS011;26259;50.214;18.620;2023-04-06T13:48:39;12.60;;;9.10;;
22677;SDS011;26259;50.214;18.620;2023-04-06T13:51:11;11.03;;;8.07;;
22677;SDS011;26259;50.214;18.620;2023-04-06T13:53:38;16.87;;;8.90;;
22677;SDS011;26259;50.214;18.620;2023-04-06T13:56:04;13.23;;;8.57;;
22677;SDS011;26259;50.214;18.620;2023-04-06T13:58:30;10.97;;;7.50;;
22677;SDS011;26259;50.214;18.620;2023-04-06T14:01:05;11.43;;;7.77;;
22677;SDS011;26259;50.214;18.620;2023-04-06T14:03:32;11.27;;;7.27;;
22677;SDS011;26259;50.214;18.620;2023-04-06T14:05:58;10.90;;;6.73;;
22677;SDS011;26259;50.214;18.620;2023-04-06T14:08:24;9.37;;;7.20;;